sensor_id;sensor_type;location;lat;lon;timestamp;P1;durP1;ratioP1;P2;durP2;ratioP2
67108;SDS011;54027;50.786;7.058;2023-07-09T00:01:52;10.80;;;5.07;;
67108;SDS011;54027;50.786;7.058;2023-07-09T00:04:18;9.15;;;5.30;;
67108;SDS011;54027;50.786;7.058;2023-07-09T00:06:44;8.20;;;5.10;;
67108;SDS011;54027;50.786;7.058;2023-07-09T00:09:14;10.57;;;5.63;;
67108;SDS011;54027;50.786;7.058;2023-07-09T00:11:42;10.10;;;5.32;;
67108;SDS011;54027;50.786;7.058;2023-07-09T00:14:12;11.20;;;6.07;;
67108;SDS011;54027;50.786;7.058;2023-07-09T00:16:39;7.60;;;4.85;;
67108;SDS011;54027;50.786;7.058;2023-07-09T00:19:10;8.90;;;5.15;;
67108;SDS011;54027;50.786;7.058;2023-07-09T00:21:39;7.88;;;5.40;;
67108;SDS011;54027;50.786;7.058;2023-07-09T00:24:06;10.32;;;5.43;;
67108;SDS011;54027;50.786;7.058;2023-07-09T00:26:31;7.85;;;4.93;;
67108;SDS011;54027;50.786;7.058;2023-07-09T00:28:58;7.47;;;5.18;;
67108;SDS011;54027;50.786;7.058;2023-07-09T00:31:24;7.28;;;4.75;;
67108;SDS011;54027;50.786;7.058;2023-07-09T00:33:51;6.95;;;4.88;;
67108;SDS011;54027;50.786;7.058;2023-07-09T00:36:18;10.05;;;5.70;;
67108;SDS011;54027;50.786;7.058;2023-07-09T00:38:48;9.45;;;6.13;;
67108;SDS011;54027;50.786;7.058;2023-07-09T00:41:19;6.00;;;4.88;;
67108;SDS011;54027;50.786;7.058;2023-07-09T00:43:49;8.35;;;5.43;;
67108;SDS011;54027;50.786;7.058;2023-07-09T00:48:45;8.70;;;5.30;;
67108;SDS011;54027;50.786;7.058;2023-07-09T00:51:14;9.13;;;5.00;;
67108;SDS011;54027;50.786;7.058;2023-07-09T00:53:42;11.02;;;6.13;;
67108;SDS011;54027;50.786;7.058;2023-07-09T00:56:14;8.15;;;4.93;;
67108;SDS011;54027;50.786;7.058;2023-07-09T00:58:47;9.25;;;4.97;;
67108;SDS011;54027;50.786;7.058;2023-07-09T01:01:14;8.15;;;5.63;;
67108;SDS011;54027;50.786;7.058;2023-07-09T01:03:47;9.52;;;6.07;;
67108;SDS011;54027;50.786;7.058;2023-07-09T01:06:18;8.70;;;5.15;;
67108;SDS011;54027;50.786;7.058;2023-07-09T01:08:50;9.90;;;5.57;;
67108;SDS011;54027;50.786;7.058;2023-07-09T01:11:19;7.63;;;5.28;;
67108;SDS011;54027;50.786;7.058;2023-07-09T01:13:49;10.55;;;5.55;;
67108;SDS011;54027;50.786;7.058;2023-07-09T01:16:37;6.93;;;5.28;;
67108;SDS011;54027;50.786;7.058;2023-07-09T01:19:05;7.22;;;5.10;;
67108;SDS011;54027;50.786;7.058;2023-07-09T01:21:31;8.15;;;5.55;;
67108;SDS011;54027;50.786;7.058;2023-07-09T01:23:57;7.13;;;5.25;;
67108;SDS011;54027;50.786;7.058;2023-07-09T01:26:25;8.82;;;4.80;;
67108;SDS011;54027;50.786;7.058;2023-07-09T01:28:55;9.52;;;4.97;;
67108;SDS011;54027;50.786;7.058;2023-07-09T01:31:23;9.73;;;5.63;;
67108;SDS011;54027;50.786;7.058;2023-07-09T01:33:48;7.68;;;5.32;;
67108;SDS011;54027;50.786;7.058;2023-07-09T01:36:16;10.32;;;5.63;;
67108;SDS011;54027;50.786;7.058;2023-07-09T01:38:48;9.02;;;6.15;;
67108;SDS011;54027;50.786;7.058;2023-07-09T01:41:14;8.30;;;5.25;;
67108;SDS011;54027;50.786;7.058;2023-07-09T01:43:40;8.20;;;5.13;;
67108;SDS011;54027;50.786;7.058;2023-07-09T01:46:09;9.93;;;5.47;;
67108;SDS011;54027;50.786;7.058;2023-07-09T01:48:37;8.77;;;5.85;;
67108;SDS011;54027;50.786;7.058;2023-07-09T01:51:10;8.88;;;5.15;;
67108;SDS011;54027;50.786;7.058;2023-07-09T01:53:37;9.63;;;6.25;;
67108;SDS011;54027;50.786;7.058;2023-07-09T01:56:05;10.07;;;6.70;;
67108;SDS011;54027;50.786;7.058;2023-07-09T01:58:32;8.02;;;5.40;;
67108;SDS011;54027;50.786;7.058;2023-07-09T02:00:58;10.80;;;5.60;;
67108;SDS011;54027;50.786;7.058;2023-07-09T02:03:24;7.95;;;5.10;;
67108;SDS011;54027;50.786;7.058;2023-07-09T02:05:51;13.18;;;6.22;;
67108;SDS011;54027;50.786;7.058;2023-07-09T02:08:17;10.73;;;6.18;;
67108;SDS011;54027;50.786;7.058;2023-07-09T02:10:43;9.00;;;5.90;;
67108;SDS011;54027;50.786;7.058;2023-07-09T02:13:10;11.40;;;5.68;;
67108;SDS011;54027;50.786;7.058;2023-07-09T02:15:35;12.02;;;6.50;;
67108;SDS011;54027;50.786;7.058;2023-07-09T02:18:01;9.95;;;5.28;;
67108;SDS011;54027;50.786;7.058;2023-07-09T02:20:27;9.95;;;5.97;;
67108;SDS011;54027;50.786;7.058;2023-07-09T02:22:52;9.63;;;5.97;;
67108;SDS011;54027;50.786;7.058;2023-07-09T02:25:17;7.25;;;5.00;;
67108;SDS011;54027;50.786;7.058;2023-07-09T02:27:43;7.95;;;5.43;;
67108;SDS011;54027;50.786;7.058;2023-07-09T02:30:08;8.73;;;5.65;;
67108;SDS011;54027;50.786;7.058;2023-07-09T02:32:36;11.02;;;6.68;;
67108;SDS011;54027;50.786;7.058;2023-07-09T02:35:02;9.02;;;5.65;;
67108;SDS011;54027;50.786;7.058;2023-07-09T02:37:27;10.70;;;6.30;;
67108;SDS011;54027;50.786;7.058;2023-07-09T02:39:53;7.72;;;5.95;;
67108;SDS011;54027;50.786;7.058;2023-07-09T02:42:19;9.57;;;5.55;;
67108;SDS011;54027;50.786;7.058;2023-07-09T02:44:46;9.80;;;6.30;;
67108;SDS011;54027;50.786;7.058;2023-07-09T02:47:12;9.43;;;5.57;;
67108;SDS011;54027;50.786;7.058;2023-07-09T02:49:38;10.07;;;6.03;;
67108;SDS011;54027;50.786;7.058;2023-07-09T02:52:04;9.27;;;5.78;;
67108;SDS011;54027;50.786;7.058;2023-07-09T02:54:31;10.10;;;6.13;;
67108;SDS011;54027;50.786;7.058;2023-07-09T02:56:56;9.48;;;5.70;;
67108;SDS011;54027;50.786;7.058;2023-07-09T02:59:22;7.40;;;5.30;;
67108;SDS011;54027;50.786;7.058;2023-07-09T03:01:47;9.88;;;5.75;;
67108;SDS011;54027;50.786;7.058;2023-07-09T03:04:14;10.85;;;6.25;;
67108;SDS011;54027;50.786;7.058;2023-07-09T03:06:40;10.55;;;6.35;;
67108;SDS011;54027;50.786;7.058;2023-07-09T03:09:06;9.82;;;5.90;;
67108;SDS011;54027;50.786;7.058;2023-07-09T03:11:32;9.02;;;6.07;;
67108;SDS011;54027;50.786;7.058;2023-07-09T03:13:59;9.27;;;6.03;;
67108;SDS011;54027;50.786;7.058;2023-07-09T03:16:29;12.32;;;6.15;;
67108;SDS011;54027;50.786;7.058;2023-07-09T03:18:58;11.80;;;7.00;;
67108;SDS011;54027;50.786;7.058;2023-07-09T03:21:24;8.07;;;5.72;;
67108;SDS011;54027;50.786;7.058;2023-07-09T03:23:51;9.35;;;5.70;;
67108;SDS011;54027;50.786;7.058;2023-07-09T03:26:17;12.18;;;6.47;;
67108;SDS011;54027;50.786;7.058;2023-07-09T03:28:42;8.55;;;5.80;;
67108;SDS011;54027;50.786;7.058;2023-07-09T03:31:08;8.57;;;6.10;;
67108;SDS011;54027;50.786;7.058;2023-07-09T03:33:34;9.80;;;6.93;;
67108;SDS011;54027;50.786;7.058;2023-07-09T03:35:59;10.95;;;6.22;;
67108;SDS011;54027;50.786;7.058;2023-07-09T03:38:24;10.30;;;6.18;;
67108;SDS011;54027;50.786;7.058;2023-07-09T03:40:51;9.93;;;6.22;;
67108;SDS011;54027;50.786;7.058;2023-07-09T03:43:19;11.02;;;6.28;;
67108;SDS011;54027;50.786;7.058;2023-07-09T03:45:46;11.75;;;6.57;;
67108;SDS011;54027;50.786;7.058;2023-07-09T03:48:13;11.00;;;6.50;;
67108;SDS011;54027;50.786;7.058;2023-07-09T03:50:40;11.82;;;6.03;;
67108;SDS011;54027;50.786;7.058;2023-07-09T03:53:06;11.63;;;6.20;;
67108;SDS011;54027;50.786;7.058;2023-07-09T03:55:32;10.93;;;6.10;;
67108;SDS011;54027;50.786;7.058;2023-07-09T03:57:57;11.60;;;6.40;;
67108;SDS011;54027;50.786;7.058;2023-07-09T04:00:23;8.55;;;5.53;;
67108;SDS011;54027;50.786;7.058;2023-07-09T04:02:49;9.25;;;6.03;;
67108;SDS011;54027;50.786;7.058;2023-07-09T04:05:16;9.48;;;6.03;;
67108;SDS011;54027;50.786;7.058;2023-07-09T04:07:42;9.10;;;5.82;;
67108;SDS011;54027;50.786;7.058;2023-07-09T04:10:08;10.25;;;5.75;;
67108;SDS011;54027;50.786;7.058;2023-07-09T04:12:34;15.35;;;6.88;;
67108;SDS011;54027;50.786;7.058;2023-07-09T04:15:01;10.35;;;6.30;;
67108;SDS011;54027;50.786;7.058;2023-07-09T04:17:27;10.70;;;6.28;;
67108;SDS011;54027;50.786;7.058;2023-07-09T04:19:53;9.90;;;6.28;;
67108;SDS011;54027;50.786;7.058;2023-07-09T04:22:18;11.48;;;6.22;;
67108;SDS011;54027;50.786;7.058;2023-07-09T04:24:44;11.80;;;6.20;;
67108;SDS011;54027;50.786;7.058;2023-07-09T04:27:09;10.73;;;6.40;;
67108;SDS011;54027;50.786;7.058;2023-07-09T04:29:35;11.05;;;5.65;;
67108;SDS011;54027;50.786;7.058;2023-07-09T04:32:03;11.68;;;5.72;;
67108;SDS011;54027;50.786;7.058;2023-07-09T04:34:47;8.63;;;5.55;;
67108;SDS011;54027;50.786;7.058;2023-07-09T04:37:13;10.52;;;5.85;;
67108;SDS011;54027;50.786;7.058;2023-07-09T04:39:41;14.93;;;6.50;;
67108;SDS011;54027;50.786;7.058;2023-07-09T04:42:11;10.15;;;6.43;;
67108;SDS011;54027;50.786;7.058;2023-07-09T04:44:38;12.10;;;7.03;;
67108;SDS011;54027;50.786;7.058;2023-07-09T04:47:03;10.00;;;6.10;;
67108;SDS011;54027;50.786;7.058;2023-07-09T04:49:29;13.18;;;6.03;;
67108;SDS011;54027;50.786;7.058;2023-07-09T04:51:54;12.05;;;6.07;;
67108;SDS011;54027;50.786;7.058;2023-07-09T04:54:21;9.63;;;6.72;;
67108;SDS011;54027;50.786;7.058;2023-07-09T04:56:47;10.77;;;6.28;;
67108;SDS011;54027;50.786;7.058;2023-07-09T04:59:13;8.20;;;5.90;;
67108;SDS011;54027;50.786;7.058;2023-07-09T05:01:39;15.43;;;6.93;;
67108;SDS011;54027;50.786;7.058;2023-07-09T05:04:04;11.15;;;5.72;;
67108;SDS011;54027;50.786;7.058;2023-07-09T05:06:30;9.40;;;5.35;;
67108;SDS011;54027;50.786;7.058;2023-07-09T05:08:55;10.35;;;6.15;;
67108;SDS011;54027;50.786;7.058;2023-07-09T05:11:21;9.50;;;6.30;;
67108;SDS011;54027;50.786;7.058;2023-07-09T05:13:46;14.45;;;6.38;;
67108;SDS011;54027;50.786;7.058;2023-07-09T05:16:12;10.30;;;6.13;;
67108;SDS011;54027;50.786;7.058;2023-07-09T05:18:37;10.80;;;5.75;;
67108;SDS011;54027;50.786;7.058;2023-07-09T05:21:02;11.13;;;5.32;;
67108;SDS011;54027;50.786;7.058;2023-07-09T05:23:28;7.82;;;5.53;;
67108;SDS011;54027;50.786;7.058;2023-07-09T05:26:00;10.18;;;5.60;;
67108;SDS011;54027;50.786;7.058;2023-07-09T05:28:28;8.98;;;5.68;;
67108;SDS011;54027;50.786;7.058;2023-07-09T05:30:54;12.35;;;6.22;;
67108;SDS011;54027;50.786;7.058;2023-07-09T05:33:19;9.13;;;6.03;;
67108;SDS011;54027;50.786;7.058;2023-07-09T05:35:45;9.38;;;5.82;;
67108;SDS011;54027;50.786;7.058;2023-07-09T05:38:11;9.40;;;5.78;;
67108;SDS011;54027;50.786;7.058;2023-07-09T05:40:37;10.25;;;5.65;;
67108;SDS011;54027;50.786;7.058;2023-07-09T05:43:03;8.05;;;5.80;;
67108;SDS011;54027;50.786;7.058;2023-07-09T05:45:28;10.00;;;5.70;;
67108;SDS011;54027;50.786;7.058;2023-07-09T05:47:53;8.70;;;5.65;;
67108;SDS011;54027;50.786;7.058;2023-07-09T05:50:19;8.93;;;5.43;;
67108;SDS011;54027;50.786;7.058;2023-07-09T05:52:44;10.23;;;5.65;;
67108;SDS011;54027;50.786;7.058;2023-07-09T05:55:10;11.98;;;5.60;;
67108;SDS011;54027;50.786;7.058;2023-07-09T05:57:36;12.93;;;6.00;;
67108;SDS011;54027;50.786;7.058;2023-07-09T06:00:01;12.57;;;6.25;;
67108;SDS011;54027;50.786;7.058;2023-07-09T06:02:27;15.30;;;6.35;;
67108;SDS011;54027;50.786;7.058;2023-07-09T06:04:52;9.55;;;6.20;;
67108;SDS011;54027;50.786;7.058;2023-07-09T06:07:17;11.13;;;5.80;;
67108;SDS011;54027;50.786;7.058;2023-07-09T06:09:45;10.07;;;5.75;;
67108;SDS011;54027;50.786;7.058;2023-07-09T06:12:11;10.32;;;6.15;;
67108;SDS011;54027;50.786;7.058;2023-07-09T06:14:38;11.07;;;5.72;;
67108;SDS011;54027;50.786;7.058;2023-07-09T06:17:03;10.02;;;5.43;;
67108;SDS011;54027;50.786;7.058;2023-07-09T06:19:28;8.95;;;5.97;;
67108;SDS011;54027;50.786;7.058;2023-07-09T06:21:54;10.02;;;5.22;;
67108;SDS011;54027;50.786;7.058;2023-07-09T06:24:20;7.85;;;5.30;;
67108;SDS011;54027;50.786;7.058;2023-07-09T06:26:46;8.23;;;5.07;;
67108;SDS011;54027;50.786;7.058;2023-07-09T06:29:12;12.63;;;5.15;;
67108;SDS011;54027;50.786;7.058;2023-07-09T06:31:37;10.02;;;5.35;;
67108;SDS011;54027;50.786;7.058;2023-07-09T06:34:05;13.13;;;5.40;;
67108;SDS011;54027;50.786;7.058;2023-07-09T06:36:32;9.07;;;5.00;;
67108;SDS011;54027;50.786;7.058;2023-07-09T06:38:58;8.00;;;4.90;;
67108;SDS011;54027;50.786;7.058;2023-07-09T06:41:23;9.57;;;5.70;;
67108;SDS011;54027;50.786;7.058;2023-07-09T06:43:49;9.38;;;5.63;;
67108;SDS011;54027;50.786;7.058;2023-07-09T06:46:15;8.38;;;5.28;;
67108;SDS011;54027;50.786;7.058;2023-07-09T06:48:44;9.75;;;4.90;;
67108;SDS011;54027;50.786;7.058;2023-07-09T06:51:09;9.60;;;4.95;;
67108;SDS011;54027;50.786;7.058;2023-07-09T06:53:35;8.85;;;5.15;;
67108;SDS011;54027;50.786;7.058;2023-07-09T06:56:01;9.25;;;5.43;;
67108;SDS011;54027;50.786;7.058;2023-07-09T06:58:28;7.70;;;5.50;;
67108;SDS011;54027;50.786;7.058;2023-07-09T07:01:02;7.70;;;5.30;;
67108;SDS011;54027;50.786;7.058;2023-07-09T07:03:29;9.77;;;5.25;;
67108;SDS011;54027;50.786;7.058;2023-07-09T07:05:55;9.93;;;5.47;;
67108;SDS011;54027;50.786;7.058;2023-07-09T07:08:23;9.68;;;5.53;;
67108;SDS011;54027;50.786;7.058;2023-07-09T07:10:50;9.30;;;5.38;;
67108;SDS011;54027;50.786;7.058;2023-07-09T07:13:26;11.05;;;5.57;;
67108;SDS011;54027;50.786;7.058;2023-07-09T07:15:53;7.57;;;5.05;;
67108;SDS011;54027;50.786;7.058;2023-07-09T07:18:18;10.10;;;5.63;;
67108;SDS011;54027;50.786;7.058;2023-07-09T07:20:44;8.10;;;5.00;;
67108;SDS011;54027;50.786;7.058;2023-07-09T07:23:10;8.40;;;5.25;;
67108;SDS011;54027;50.786;7.058;2023-07-09T07:25:35;7.75;;;4.47;;
67108;SDS011;54027;50.786;7.058;2023-07-09T07:28:01;10.13;;;5.03;;
67108;SDS011;54027;50.786;7.058;2023-07-09T07:30:26;9.07;;;5.40;;
67108;SDS011;54027;50.786;7.058;2023-07-09T07:32:52;7.65;;;5.35;;
67108;SDS011;54027;50.786;7.058;2023-07-09T07:35:17;11.65;;;6.22;;
67108;SDS011;54027;50.786;7.058;2023-07-09T07:37:43;10.93;;;5.18;;
67108;SDS011;54027;50.786;7.058;2023-07-09T07:40:09;10.52;;;5.15;;
67108;SDS011;54027;50.786;7.058;2023-07-09T07:42:35;8.63;;;5.07;;
67108;SDS011;54027;50.786;7.058;2023-07-09T07:45:01;9.35;;;4.78;;
67108;SDS011;54027;50.786;7.058;2023-07-09T07:47:26;11.18;;;5.22;;
67108;SDS011;54027;50.786;7.058;2023-07-09T07:49:52;11.93;;;5.63;;
67108;SDS011;54027;50.786;7.058;2023-07-09T07:52:18;7.40;;;5.22;;
67108;SDS011;54027;50.786;7.058;2023-07-09T07:54:44;11.63;;;5.43;;
67108;SDS011;54027;50.786;7.058;2023-07-09T07:57:09;11.23;;;4.90;;
67108;SDS011;54027;50.786;7.058;2023-07-09T07:59:36;9.82;;;4.70;;
67108;SDS011;54027;50.786;7.058;2023-07-09T08:02:02;10.75;;;5.30;;
67108;SDS011;54027;50.786;7.058;2023-07-09T08:04:28;11.15;;;5.05;;
67108;SDS011;54027;50.786;7.058;2023-07-09T08:06:54;6.63;;;4.80;;
67108;SDS011;54027;50.786;7.058;2023-07-09T08:09:20;13.55;;;5.57;;
67108;SDS011;54027;50.786;7.058;2023-07-09T08:11:45;7.38;;;4.20;;
67108;SDS011;54027;50.786;7.058;2023-07-09T08:14:11;8.23;;;4.63;;
67108;SDS011;54027;50.786;7.058;2023-07-09T08:16:36;8.32;;;4.40;;
67108;SDS011;54027;50.786;7.058;2023-07-09T08:19:02;7.90;;;4.70;;
67108;SDS011;54027;50.786;7.058;2023-07-09T08:21:27;9.40;;;4.97;;
67108;SDS011;54027;50.786;7.058;2023-07-09T08:23:53;7.53;;;4.88;;
67108;SDS011;54027;50.786;7.058;2023-07-09T08:26:18;6.65;;;4.50;;
67108;SDS011;54027;50.786;7.058;2023-07-09T08:28:44;7.40;;;4.80;;
67108;SDS011;54027;50.786;7.058;2023-07-09T08:31:09;7.05;;;4.65;;
67108;SDS011;54027;50.786;7.058;2023-07-09T08:33:35;6.47;;;4.65;;
67108;SDS011;54027;50.786;7.058;2023-07-09T08:36:01;7.00;;;4.55;;
67108;SDS011;54027;50.786;7.058;2023-07-09T08:38:26;7.90;;;4.93;;
67108;SDS011;54027;50.786;7.058;2023-07-09T08:40:59;7.32;;;4.53;;
67108;SDS011;54027;50.786;7.058;2023-07-09T08:43:36;7.38;;;4.43;;
67108;SDS011;54027;50.786;7.058;2023-07-09T08:48:52;6.18;;;4.25;;
67108;SDS011;54027;50.786;7.058;2023-07-09T08:51:34;11.13;;;4.78;;
67108;SDS011;54027;50.786;7.058;2023-07-09T08:54:04;7.87;;;4.57;;
67108;SDS011;54027;50.786;7.058;2023-07-09T08:56:39;7.68;;;4.35;;
67108;SDS011;54027;50.786;7.058;2023-07-09T08:59:05;9.05;;;4.75;;
67108;SDS011;54027;50.786;7.058;2023-07-09T09:03:59;10.02;;;4.30;;
67108;SDS011;54027;50.786;7.058;2023-07-09T09:06:30;9.63;;;4.18;;
67108;SDS011;54027;50.786;7.058;2023-07-09T09:11:46;8.82;;;4.53;;
67108;SDS011;54027;50.786;7.058;2023-07-09T09:15:03;6.00;;;4.45;;
67108;SDS011;54027;50.786;7.058;2023-07-09T09:17:13;6.85;;;4.28;;
67108;SDS011;54027;50.786;7.058;2023-07-09T09:19:45;7.97;;;4.82;;
67108;SDS011;54027;50.786;7.058;2023-07-09T09:22:15;7.85;;;4.32;;
67108;SDS011;54027;50.786;7.058;2023-07-09T09:27:25;6.78;;;4.30;;
67108;SDS011;54027;50.786;7.058;2023-07-09T09:29:50;8.38;;;4.93;;
67108;SDS011;54027;50.786;7.058;2023-07-09T09:32:26;7.75;;;4.65;;
67108;SDS011;54027;50.786;7.058;2023-07-09T09:34:52;8.95;;;4.13;;
67108;SDS011;54027;50.786;7.058;2023-07-09T09:37:31;7.15;;;4.25;;
67108;SDS011;54027;50.786;7.058;2023-07-09T09:39:58;7.35;;;4.57;;
67108;SDS011;54027;50.786;7.058;2023-07-09T09:42:24;7.22;;;4.80;;
67108;SDS011;54027;50.786;7.058;2023-07-09T09:44:52;8.90;;;4.40;;
67108;SDS011;54027;50.786;7.058;2023-07-09T09:47:19;8.07;;;4.45;;
67108;SDS011;54027;50.786;7.058;2023-07-09T09:49:45;7.80;;;4.32;;
67108;SDS011;54027;50.786;7.058;2023-07-09T09:52:14;11.00;;;4.80;;
67108;SDS011;54027;50.786;7.058;2023-07-09T09:54:46;5.90;;;4.05;;
67108;SDS011;54027;50.786;7.058;2023-07-09T09:57:22;6.47;;;4.10;;
67108;SDS011;54027;50.786;7.058;2023-07-09T09:59:49;6.18;;;4.13;;
67108;SDS011;54027;50.786;7.058;2023-07-09T10:02:17;9.52;;;4.10;;
67108;SDS011;54027;50.786;7.058;2023-07-09T10:04:44;6.75;;;4.32;;
67108;SDS011;54027;50.786;7.058;2023-07-09T10:07:11;6.28;;;4.32;;
67108;SDS011;54027;50.786;7.058;2023-07-09T10:09:53;8.35;;;4.18;;
67108;SDS011;54027;50.786;7.058;2023-07-09T10:15:01;5.45;;;4.00;;
67108;SDS011;54027;50.786;7.058;2023-07-09T10:26:31;8.70;;;3.97;;
67108;SDS011;54027;50.786;7.058;2023-07-09T10:29:07;5.65;;;3.50;;
67108;SDS011;54027;50.786;7.058;2023-07-09T10:32:06;8.43;;;3.72;;
67108;SDS011;54027;50.786;7.058;2023-07-09T10:34:44;7.00;;;3.67;;
67108;SDS011;54027;50.786;7.058;2023-07-09T10:40:01;8.45;;;4.10;;
67108;SDS011;54027;50.786;7.058;2023-07-09T10:42:30;6.60;;;3.90;;
67108;SDS011;54027;50.786;7.058;2023-07-09T10:46:02;6.53;;;4.28;;
67108;SDS011;54027;50.786;7.058;2023-07-09T10:50:52;6.68;;;3.90;;
67108;SDS011;54027;50.786;7.058;2023-07-09T10:55:50;6.18;;;3.78;;
67108;SDS011;54027;50.786;7.058;2023-07-09T10:58:32;7.90;;;4.20;;
67108;SDS011;54027;50.786;7.058;2023-07-09T11:01:00;6.45;;;3.55;;
67108;SDS011;54027;50.786;7.058;2023-07-09T11:06:17;7.63;;;4.07;;
67108;SDS011;54027;50.786;7.058;2023-07-09T11:08:47;5.47;;;3.65;;
67108;SDS011;54027;50.786;7.058;2023-07-09T11:11:29;7.85;;;4.22;;
67108;SDS011;54027;50.786;7.058;2023-07-09T11:14:17;8.93;;;3.47;;
67108;SDS011;54027;50.786;7.058;2023-07-09T11:17:11;4.63;;;3.55;;
67108;SDS011;54027;50.786;7.058;2023-07-09T11:19:44;9.05;;;4.13;;
67108;SDS011;54027;50.786;7.058;2023-07-09T11:22:16;6.05;;;3.40;;
67108;SDS011;54027;50.786;7.058;2023-07-09T11:27:16;5.65;;;3.67;;
67108;SDS011;54027;50.786;7.058;2023-07-09T11:29:46;7.03;;;3.35;;
67108;SDS011;54027;50.786;7.058;2023-07-09T11:32:18;8.48;;;4.10;;
67108;SDS011;54027;50.786;7.058;2023-07-09T11:34:46;5.03;;;3.45;;
67108;SDS011;54027;50.786;7.058;2023-07-09T11:37:12;7.03;;;3.28;;
67108;SDS011;54027;50.786;7.058;2023-07-09T11:42:22;4.97;;;3.40;;
67108;SDS011;54027;50.786;7.058;2023-07-09T11:45:04;4.63;;;3.03;;
67108;SDS011;54027;50.786;7.058;2023-07-09T11:47:37;7.57;;;3.58;;
67108;SDS011;54027;50.786;7.058;2023-07-09T11:55:53;6.80;;;3.40;;
67108;SDS011;54027;50.786;7.058;2023-07-09T11:58:18;7.05;;;3.65;;
67108;SDS011;54027;50.786;7.058;2023-07-09T12:00:47;6.25;;;3.10;;
67108;SDS011;54027;50.786;7.058;2023-07-09T12:03:17;6.53;;;3.78;;
67108;SDS011;54027;50.786;7.058;2023-07-09T12:05:49;6.80;;;3.33;;
67108;SDS011;54027;50.786;7.058;2023-07-09T12:08:16;5.30;;;3.20;;
67108;SDS011;54027;50.786;7.058;2023-07-09T12:10:42;6.32;;;3.75;;
67108;SDS011;54027;50.786;7.058;2023-07-09T12:13:09;8.07;;;3.90;;
67108;SDS011;54027;50.786;7.058;2023-07-09T12:15:38;6.30;;;3.60;;
67108;SDS011;54027;50.786;7.058;2023-07-09T12:18:09;7.75;;;3.35;;
67108;SDS011;54027;50.786;7.058;2023-07-09T12:20:36;6.93;;;3.88;;
67108;SDS011;54027;50.786;7.058;2023-07-09T12:26:01;6.15;;;3.60;;
67108;SDS011;54027;50.786;7.058;2023-07-09T12:28:27;6.47;;;4.22;;
67108;SDS011;54027;50.786;7.058;2023-07-09T12:30:54;4.13;;;3.20;;
67108;SDS011;54027;50.786;7.058;2023-07-09T12:33:21;5.45;;;3.72;;
67108;SDS011;54027;50.786;7.058;2023-07-09T12:35:49;5.18;;;3.60;;
67108;SDS011;54027;50.786;7.058;2023-07-09T12:38:26;5.93;;;3.60;;
67108;SDS011;54027;50.786;7.058;2023-07-09T12:40:53;7.22;;;3.50;;
67108;SDS011;54027;50.786;7.058;2023-07-09T12:43:27;5.38;;;3.63;;
67108;SDS011;54027;50.786;7.058;2023-07-09T12:45:56;7.22;;;3.85;;
67108;SDS011;54027;50.786;7.058;2023-07-09T12:48:25;7.97;;;4.35;;
67108;SDS011;54027;50.786;7.058;2023-07-09T12:50:54;7.28;;;4.18;;
67108;SDS011;54027;50.786;7.058;2023-07-09T12:53:23;7.40;;;4.47;;
67108;SDS011;54027;50.786;7.058;2023-07-09T12:55:51;6.43;;;3.97;;
67108;SDS011;54027;50.786;7.058;2023-07-09T12:58:23;5.03;;;3.47;;
67108;SDS011;54027;50.786;7.058;2023-07-09T13:00:51;7.78;;;3.95;;
67108;SDS011;54027;50.786;7.058;2023-07-09T13:03:26;4.78;;;3.47;;
67108;SDS011;54027;50.786;7.058;2023-07-09T13:05:54;6.47;;;3.33;;
67108;SDS011;54027;50.786;7.058;2023-07-09T13:08:31;7.38;;;3.58;;
67108;SDS011;54027;50.786;7.058;2023-07-09T13:10:59;7.30;;;3.80;;
67108;SDS011;54027;50.786;7.058;2023-07-09T13:13:26;6.25;;;3.85;;
67108;SDS011;54027;50.786;7.058;2023-07-09T13:15:52;7.07;;;3.55;;
67108;SDS011;54027;50.786;7.058;2023-07-09T13:18:22;7.55;;;3.60;;
67108;SDS011;54027;50.786;7.058;2023-07-09T13:20:50;6.10;;;3.42;;
67108;SDS011;54027;50.786;7.058;2023-07-09T13:23:20;5.95;;;3.40;;
67108;SDS011;54027;50.786;7.058;2023-07-09T13:25:48;6.03;;;3.55;;
67108;SDS011;54027;50.786;7.058;2023-07-09T13:28:23;8.13;;;3.67;;
67108;SDS011;54027;50.786;7.058;2023-07-09T13:30:53;6.97;;;3.00;;
67108;SDS011;54027;50.786;7.058;2023-07-09T13:33:22;8.48;;;3.55;;
67108;SDS011;54027;50.786;7.058;2023-07-09T13:35:48;5.38;;;3.35;;
67108;SDS011;54027;50.786;7.058;2023-07-09T13:38:17;5.07;;;3.80;;
67108;SDS011;54027;50.786;7.058;2023-07-09T13:40:44;7.18;;;4.22;;
67108;SDS011;54027;50.786;7.058;2023-07-09T13:43:12;5.57;;;4.15;;
67108;SDS011;54027;50.786;7.058;2023-07-09T13:45:44;5.53;;;3.97;;
67108;SDS011;54027;50.786;7.058;2023-07-09T13:48:14;5.25;;;3.75;;
67108;SDS011;54027;50.786;7.058;2023-07-09T13:50:42;5.57;;;3.67;;
67108;SDS011;54027;50.786;7.058;2023-07-09T13:53:11;4.10;;;3.45;;
67108;SDS011;54027;50.786;7.058;2023-07-09T13:55:40;5.40;;;3.53;;
67108;SDS011;54027;50.786;7.058;2023-07-09T13:58:08;6.07;;;2.85;;
67108;SDS011;54027;50.786;7.058;2023-07-09T14:00:37;5.93;;;3.45;;
67108;SDS011;54027;50.786;7.058;2023-07-09T14:03:25;7.28;;;4.05;;
67108;SDS011;54027;50.786;7.058;2023-07-09T14:05:52;8.60;;;3.67;;
67108;SDS011;54027;50.786;7.058;2023-07-09T14:08:18;7.13;;;3.70;;
67108;SDS011;54027;50.786;7.058;2023-07-09T14:10:45;5.05;;;3.33;;
67108;SDS011;54027;50.786;7.058;2023-07-09T14:13:12;5.25;;;3.53;;
67108;SDS011;54027;50.786;7.058;2023-07-09T14:15:40;6.20;;;4.13;;
67108;SDS011;54027;50.786;7.058;2023-07-09T14:18:17;6.78;;;3.40;;
67108;SDS011;54027;50.786;7.058;2023-07-09T14:20:44;8.48;;;4.20;;
67108;SDS011;54027;50.786;7.058;2023-07-09T14:23:10;8.07;;;3.90;;
67108;SDS011;54027;50.786;7.058;2023-07-09T14:25:37;9.10;;;3.60;;
67108;SDS011;54027;50.786;7.058;2023-07-09T14:28:16;6.57;;;3.65;;
67108;SDS011;54027;50.786;7.058;2023-07-09T14:30:44;8.63;;;3.72;;
67108;SDS011;54027;50.786;7.058;2023-07-09T14:33:11;8.25;;;3.70;;
67108;SDS011;54027;50.786;7.058;2023-07-09T14:35:39;6.18;;;3.55;;
67108;SDS011;54027;50.786;7.058;2023-07-09T14:38:06;15.95;;;4.43;;
67108;SDS011;54027;50.786;7.058;2023-07-09T14:40:41;12.07;;;4.10;;
67108;SDS011;54027;50.786;7.058;2023-07-09T14:43:08;11.55;;;3.85;;
67108;SDS011;54027;50.786;7.058;2023-07-09T14:45:35;11.10;;;3.65;;
67108;SDS011;54027;50.786;7.058;2023-07-09T14:48:01;10.60;;;4.35;;
67108;SDS011;54027;50.786;7.058;2023-07-09T14:50:27;7.90;;;4.10;;
67108;SDS011;54027;50.786;7.058;2023-07-09T14:52:53;11.07;;;4.40;;
67108;SDS011;54027;50.786;7.058;2023-07-09T14:55:19;11.43;;;4.25;;
67108;SDS011;54027;50.786;7.058;2023-07-09T14:57:46;8.73;;;4.15;;
67108;SDS011;54027;50.786;7.058;2023-07-09T15:00:13;8.25;;;4.38;;
67108;SDS011;54027;50.786;7.058;2023-07-09T15:02:40;10.48;;;4.30;;
67108;SDS011;54027;50.786;7.058;2023-07-09T15:05:15;9.75;;;5.07;;
67108;SDS011;54027;50.786;7.058;2023-07-09T15:07:43;9.07;;;4.72;;
67108;SDS011;54027;50.786;7.058;2023-07-09T15:10:17;7.63;;;4.95;;
67108;SDS011;54027;50.786;7.058;2023-07-09T15:12:47;6.18;;;4.22;;
67108;SDS011;54027;50.786;7.058;2023-07-09T15:15:28;8.27;;;4.55;;
67108;SDS011;54027;50.786;7.058;2023-07-09T15:17:56;9.05;;;5.10;;
67108;SDS011;54027;50.786;7.058;2023-07-09T15:20:24;7.25;;;4.50;;
67108;SDS011;54027;50.786;7.058;2023-07-09T15:22:52;10.75;;;4.25;;
67108;SDS011;54027;50.786;7.058;2023-07-09T15:25:20;10.00;;;4.53;;
67108;SDS011;54027;50.786;7.058;2023-07-09T15:27:47;6.97;;;4.38;;
67108;SDS011;54027;50.786;7.058;2023-07-09T15:30:14;8.13;;;4.70;;
67108;SDS011;54027;50.786;7.058;2023-07-09T15:32:40;8.43;;;4.57;;
67108;SDS011;54027;50.786;7.058;2023-07-09T15:35:05;9.20;;;5.13;;
67108;SDS011;54027;50.786;7.058;2023-07-09T15:37:31;7.32;;;5.00;;
67108;SDS011;54027;50.786;7.058;2023-07-09T15:39:56;10.38;;;6.18;;